Pagina principale
METAR-TAF:

METAR-TAF

Aeroporti :

Yeovilton, Inghilterra

latitudine: 51-00N, longitudine: 002-38W, altezza: 23 m

Osservazione

Il bollettino è stato emesso 39 minuti fa, alle 05:50 UTC
Vento 12 kt da nord-est
Temperature 14°C
Umidità 82%
Pressione 1028 hPa
Visibilità 10 km o più
Poco nuvoloso ad un'altezza di 1200 ft

METAR: EGDY 270550Z 04012KT 9999 FEW012 14/11 Q1028 NOSIG RMK BLU BLU

Ora: 07:29 (06:29 UTC)

Previsione

Il bollettino è stato emesso 1 ora e 54 minuti fa, alle 04:35 UTC
Previsione valida dal 27 alle 06 UTC al 27 alle 15 UTC
Vento 10 kt da nord-est con raffiche fino a 20 kt
Visibilità 10 km o più
Poco nuvoloso ad un'altezza di 1000 ft
Evoluzione graduale
dal 27 alle 10 UTC al 27 alle 12 UTC
Vento 15 kt da est con raffiche fino a 25 kt
Visibilità 10 km o più
nessuna nube inferiore a 1500 m e nessun cumulonembo

TAF: EGDY 270435Z 2706/2715 05010G20KT 9999 FEW010 BECMG 2710/2712 08015G25KT CAVOK

Osservazioni e previsioni meteorologiche di più di 4000 aeroporti (messaggi METAR e TAF).

Le stazioni disponibili sono rappresentate dai dischi gialli e rossi sulla carta.

Puntare il mouse per vedere il nome della stazione.

Clicca sopra per visualizzare le osservazioni e previsioni meteorologiche.

Per cambiare la mappa : fare clic sui pulsanti verdi con una croce nera per ingrandire, il pulsante verde con un trattino per diminuire, o sulla freccia verde per le mappe adiacenti.


METAR-TAF: